Banquereau: Past 24 Hour Conditions

 

J.A. Douglas McCurdy Sydney Airport

04:00 AM ADT 25 April 2014
This table is a summary of hourly weather conditions for the past 24 hours.
Date / Time
(ADT)
Wind(knots) Conditions Visibility(km) Pressure(kPa) Air tempC) Relative humidity(%) Dew pointC) Wind Chill
25 April 2014
4:00 N 21 gust 26 Light Freezing Rain 2 99.7 0 100 0 -8
3:00 N 22 gust 29 Light Freezing Rain 3 99.7 0 100 0 -8
2:00 N 20 gust 26 Light Freezing Rain 3 99.8 0 99 0 -7
1:00 NNE 20 gust 29 Light Freezing Rain 2 99.8 0 100 0 -7
0:00 NNE 19 gust 25 Light Freezing Rain 2 99.8 0 100 0 -7
24 April 2014
23:00 NNE 18 gust 25 Light Freezing Rain 2 99.8 0 100 0 *
22:00 NNE 15 gust 20 Light Rain 2 99.9 0 100 0 *
21:00 NE 16 gust 22 Light Rain 6 99.9 1 94 0 *
20:00 NE 17 gust 25 Light Rain 2 99.8 1 92 0 *
19:00 NE 16 gust 22 Light Drizzle 6 99.8 1 83 -1 *
18:00 NE 18 gust 25 Cloudy 13 99.8 2 79 -2 *
17:00 NE 16 gust 28 Cloudy 13 99.7 2 80 -2 *
16:00 ENE 15 gust 25 Cloudy 13 99.8 1 82 -1 *
15:00 ENE 19 gust 28 Cloudy 13 99.8 2 79 -1 *
14:00 ENE 20 gust 26 Cloudy 13 99.9 2 81 -1 *
13:00 ENE 23 Cloudy 13 99.9 1 76 -2 *
12:00 ENE 19 gust 28 Cloudy 13 99.9 1 77 -2 *
11:00 E 18 gust 28 Cloudy 13 100.0 1 77 -2 *
10:00 E 18 gust 26 Cloudy 13 100.0 1 77 -2 *
9:00 E 19 gust 29 Cloudy 13 100.0 1 76 -2 *
8:00 E 18 gust 25 Cloudy 13 100.0 1 77 -2 *
7:00 E 13 gust 21 Cloudy 13 100.0 1 79 -2 *
6:00 E 14 gust 19 Fog 10 100.0 1 82 -2 *
5:00 E 13 gust 19 Cloudy 16 100.0 1 82 -2 *
4:00 E 14 gust 21 Cloudy 16 100.0 1 83 -1 *
 
Map of Atlantic - Newfoundland marine weather areas Southwestern Grand Banks - 44138 Banquereau - 44139 Tail of the Bank - 44140 Nickerson Bank - 44251 Northeast Burgeo Bank - 44255 Blanc-Sablon Airport Cap Whittle Chevery Natashquan Airport Heath Point Miscou Island Grand Étang Ingonish Beach North Mountain St.Paul Island J.A. Douglas McCurdy Sydney Airport Charlottetown Airport East Point North Cape Argentia Bonavista Burgeo Cape Race Corner Brook Daniel's Harbour Englee Ferolle Point La Scie Port aux Basques Rocky Harbour Sagona Island St. Anthony Airport St. John's Int'l Airport St. Lawrence Stephenville Airport Twillingate Winterland Wreckhouse Cartwright Airport Mary's Harbour Grates Cove Pool's Island Marticot Island Long Pond Îles de la Madeleine Airport
Legend: buoyBuoy land stationLand Station